sensor_id;sensor_type;location;lat;lon;timestamp;P1;durP1;ratioP1;P2;durP2;ratioP2
4986;SDS011;12674;51.500;7.552;2022-12-18T00:01:06;28.00;;;12.40;;
4986;SDS011;12674;51.500;7.552;2022-12-18T00:03:18;21.97;;;12.47;;
4986;SDS011;12674;51.500;7.552;2022-12-18T00:05:21;22.40;;;11.57;;
4986;SDS011;12674;51.500;7.552;2022-12-18T00:07:24;21.87;;;12.10;;
4986;SDS011;12674;51.500;7.552;2022-12-18T00:09:27;21.37;;;11.87;;
4986;SDS011;12674;51.500;7.552;2022-12-18T00:11:41;25.33;;;12.87;;
4986;SDS011;12674;51.500;7.552;2022-12-18T00:13:44;23.07;;;13.50;;
4986;SDS011;12674;51.500;7.552;2022-12-18T00:15:47;19.60;;;10.90;;
4986;SDS011;12674;51.500;7.552;2022-12-18T00:17:50;14.73;;;8.43;;
4986;SDS011;12674;51.500;7.552;2022-12-18T00:19:54;18.80;;;9.97;;
4986;SDS011;12674;51.500;7.552;2022-12-18T00:21:56;22.27;;;10.83;;
4986;SDS011;12674;51.500;7.552;2022-12-18T00:23:59;18.23;;;10.03;;
4986;SDS011;12674;51.500;7.552;2022-12-18T00:26:03;18.37;;;10.20;;
4986;SDS011;12674;51.500;7.552;2022-12-18T00:28:08;14.23;;;8.47;;
4986;SDS011;12674;51.500;7.552;2022-12-18T00:30:11;14.07;;;8.00;;
4986;SDS011;12674;51.500;7.552;2022-12-18T00:32:15;16.33;;;8.70;;
4986;SDS011;12674;51.500;7.552;2022-12-18T00:34:18;10.53;;;6.83;;
4986;SDS011;12674;51.500;7.552;2022-12-18T00:36:23;22.00;;;8.43;;
4986;SDS011;12674;51.500;7.552;2022-12-18T00:38:27;16.30;;;8.40;;
4986;SDS011;12674;51.500;7.552;2022-12-18T00:40:30;18.10;;;7.80;;
4986;SDS011;12674;51.500;7.552;2022-12-18T00:42:33;12.37;;;7.47;;
4986;SDS011;12674;51.500;7.552;2022-12-18T00:44:58;11.00;;;6.50;;
4986;SDS011;12674;51.500;7.552;2022-12-18T00:47:01;11.17;;;6.77;;
4986;SDS011;12674;51.500;7.552;2022-12-18T00:49:05;15.73;;;7.23;;
4986;SDS011;12674;51.500;7.552;2022-12-18T00:51:08;9.73;;;6.30;;
4986;SDS011;12674;51.500;7.552;2022-12-18T00:53:11;11.90;;;7.07;;
4986;SDS011;12674;51.500;7.552;2022-12-18T00:55:15;10.37;;;6.40;;
4986;SDS011;12674;51.500;7.552;2022-12-18T00:57:18;15.20;;;6.90;;
4986;SDS011;12674;51.500;7.552;2022-12-18T00:59:21;12.00;;;6.47;;
4986;SDS011;12674;51.500;7.552;2022-12-18T01:01:26;9.90;;;7.07;;
4986;SDS011;12674;51.500;7.552;2022-12-18T01:03:29;16.57;;;7.37;;
4986;SDS011;12674;51.500;7.552;2022-12-18T01:05:32;13.97;;;7.87;;
4986;SDS011;12674;51.500;7.552;2022-12-18T01:07:35;13.57;;;7.23;;
4986;SDS011;12674;51.500;7.552;2022-12-18T01:09:38;11.60;;;7.03;;
4986;SDS011;12674;51.500;7.552;2022-12-18T01:11:41;10.13;;;6.23;;
4986;SDS011;12674;51.500;7.552;2022-12-18T01:13:45;9.10;;;6.50;;
4986;SDS011;12674;51.500;7.552;2022-12-18T01:15:48;10.60;;;6.53;;
4986;SDS011;12674;51.500;7.552;2022-12-18T01:17:53;15.20;;;7.90;;
4986;SDS011;12674;51.500;7.552;2022-12-18T01:19:56;13.87;;;7.73;;
4986;SDS011;12674;51.500;7.552;2022-12-18T01:22:00;14.20;;;7.43;;
4986;SDS011;12674;51.500;7.552;2022-12-18T01:24:03;11.93;;;7.23;;
4986;SDS011;12674;51.500;7.552;2022-12-18T01:26:08;15.77;;;7.30;;
4986;SDS011;12674;51.500;7.552;2022-12-18T01:28:12;11.67;;;7.97;;
4986;SDS011;12674;51.500;7.552;2022-12-18T01:30:15;16.27;;;8.70;;
4986;SDS011;12674;51.500;7.552;2022-12-18T01:32:19;14.60;;;7.23;;
4986;SDS011;12674;51.500;7.552;2022-12-18T01:34:25;15.87;;;8.33;;
4986;SDS011;12674;51.500;7.552;2022-12-18T01:36:29;13.40;;;8.20;;
4986;SDS011;12674;51.500;7.552;2022-12-18T01:38:34;15.83;;;8.00;;
4986;SDS011;12674;51.500;7.552;2022-12-18T01:40:36;12.60;;;7.73;;
4986;SDS011;12674;51.500;7.552;2022-12-18T01:42:39;13.30;;;7.73;;
4986;SDS011;12674;51.500;7.552;2022-12-18T01:47:07;13.20;;;7.40;;
4986;SDS011;12674;51.500;7.552;2022-12-18T01:49:10;11.50;;;7.00;;
4986;SDS011;12674;51.500;7.552;2022-12-18T01:51:15;11.77;;;7.17;;
4986;SDS011;12674;51.500;7.552;2022-12-18T01:53:18;10.47;;;6.67;;
4986;SDS011;12674;51.500;7.552;2022-12-18T01:55:25;11.53;;;5.93;;
4986;SDS011;12674;51.500;7.552;2022-12-18T01:57:28;9.90;;;6.30;;
4986;SDS011;12674;51.500;7.552;2022-12-18T01:59:31;8.87;;;5.33;;
4986;SDS011;12674;51.500;7.552;2022-12-18T02:01:35;12.70;;;6.40;;
4986;SDS011;12674;51.500;7.552;2022-12-18T02:03:40;8.20;;;5.60;;
4986;SDS011;12674;51.500;7.552;2022-12-18T02:05:45;10.67;;;4.53;;
4986;SDS011;12674;51.500;7.552;2022-12-18T02:07:55;8.10;;;5.57;;
4986;SDS011;12674;51.500;7.552;2022-12-18T02:10:06;7.87;;;5.17;;
4986;SDS011;12674;51.500;7.552;2022-12-18T02:12:16;7.60;;;4.93;;
4986;SDS011;12674;51.500;7.552;2022-12-18T02:14:22;14.43;;;6.63;;
4986;SDS011;12674;51.500;7.552;2022-12-18T02:16:30;10.83;;;6.50;;
4986;SDS011;12674;51.500;7.552;2022-12-18T02:18:38;12.20;;;3.83;;
4986;SDS011;12674;51.500;7.552;2022-12-18T02:20:45;7.30;;;4.67;;
4986;SDS011;12674;51.500;7.552;2022-12-18T02:22:57;9.10;;;4.53;;
4986;SDS011;12674;51.500;7.552;2022-12-18T02:25:12;3.80;;;3.30;;
4986;SDS011;12674;51.500;7.552;2022-12-18T02:27:20;4.17;;;3.77;;
4986;SDS011;12674;51.500;7.552;2022-12-18T02:29:24;6.37;;;3.73;;
4986;SDS011;12674;51.500;7.552;2022-12-18T02:31:30;5.70;;;3.70;;
4986;SDS011;12674;51.500;7.552;2022-12-18T02:33:38;7.27;;;3.87;;
4986;SDS011;12674;51.500;7.552;2022-12-18T02:35:43;3.47;;;3.00;;
4986;SDS011;12674;51.500;7.552;2022-12-18T02:37:47;3.83;;;3.10;;
4986;SDS011;12674;51.500;7.552;2022-12-18T02:39:51;4.53;;;3.00;;
4986;SDS011;12674;51.500;7.552;2022-12-18T02:41:55;3.50;;;3.20;;
4986;SDS011;12674;51.500;7.552;2022-12-18T02:44:01;3.70;;;3.10;;
4986;SDS011;12674;51.500;7.552;2022-12-18T02:46:23;4.53;;;2.50;;
4986;SDS011;12674;51.500;7.552;2022-12-18T02:48:31;3.10;;;2.80;;
4986;SDS011;12674;51.500;7.552;2022-12-18T02:50:37;6.70;;;3.40;;
4986;SDS011;12674;51.500;7.552;2022-12-18T02:52:45;4.00;;;3.27;;
4986;SDS011;12674;51.500;7.552;2022-12-18T02:54:56;5.50;;;2.40;;
4986;SDS011;12674;51.500;7.552;2022-12-18T02:57:06;3.90;;;2.60;;
4986;SDS011;12674;51.500;7.552;2022-12-18T02:59:17;5.17;;;3.47;;
4986;SDS011;12674;51.500;7.552;2022-12-18T03:01:30;3.87;;;2.87;;
4986;SDS011;12674;51.500;7.552;2022-12-18T03:03:38;3.37;;;2.27;;
4986;SDS011;12674;51.500;7.552;2022-12-18T03:05:44;4.13;;;2.47;;
4986;SDS011;12674;51.500;7.552;2022-12-18T03:07:51;5.27;;;2.50;;
4986;SDS011;12674;51.500;7.552;2022-12-18T03:09:56;7.10;;;2.77;;
4986;SDS011;12674;51.500;7.552;2022-12-18T03:12:02;4.67;;;3.37;;
4986;SDS011;12674;51.500;7.552;2022-12-18T03:14:30;7.23;;;2.70;;
4986;SDS011;12674;51.500;7.552;2022-12-18T03:16:34;4.10;;;3.07;;
4986;SDS011;12674;51.500;7.552;2022-12-18T03:18:41;4.10;;;2.77;;
4986;SDS011;12674;51.500;7.552;2022-12-18T03:20:47;6.90;;;2.97;;
4986;SDS011;12674;51.500;7.552;2022-12-18T03:22:55;2.80;;;2.60;;
4986;SDS011;12674;51.500;7.552;2022-12-18T03:25:02;3.90;;;2.60;;
4986;SDS011;12674;51.500;7.552;2022-12-18T03:27:09;4.40;;;3.00;;
4986;SDS011;12674;51.500;7.552;2022-12-18T03:29:16;3.23;;;2.30;;
4986;SDS011;12674;51.500;7.552;2022-12-18T03:31:23;3.60;;;2.83;;
4986;SDS011;12674;51.500;7.552;2022-12-18T03:33:28;2.90;;;2.60;;
4986;SDS011;12674;51.500;7.552;2022-12-18T03:35:33;3.00;;;2.70;;
4986;SDS011;12674;51.500;7.552;2022-12-18T03:37:39;2.97;;;2.50;;
4986;SDS011;12674;51.500;7.552;2022-12-18T03:39:42;3.10;;;2.80;;
4986;SDS011;12674;51.500;7.552;2022-12-18T03:41:46;2.70;;;2.50;;
4986;SDS011;12674;51.500;7.552;2022-12-18T03:44:18;3.00;;;2.10;;
4986;SDS011;12674;51.500;7.552;2022-12-18T03:46:26;2.30;;;2.10;;
4986;SDS011;12674;51.500;7.552;2022-12-18T03:48:31;4.33;;;3.10;;
4986;SDS011;12674;51.500;7.552;2022-12-18T03:50:43;3.60;;;2.77;;
4986;SDS011;12674;51.500;7.552;2022-12-18T03:52:51;7.77;;;2.87;;
4986;SDS011;12674;51.500;7.552;2022-12-18T03:55:01;3.37;;;2.07;;
4986;SDS011;12674;51.500;7.552;2022-12-18T03:57:06;3.63;;;2.40;;
4986;SDS011;12674;51.500;7.552;2022-12-18T03:59:14;2.60;;;2.40;;
4986;SDS011;12674;51.500;7.552;2022-12-18T04:01:18;1.90;;;1.80;;
4986;SDS011;12674;51.500;7.552;2022-12-18T04:03:26;5.73;;;3.40;;
4986;SDS011;12674;51.500;7.552;2022-12-18T04:05:31;2.70;;;2.33;;
4986;SDS011;12674;51.500;7.552;2022-12-18T04:07:36;2.53;;;2.33;;
4986;SDS011;12674;51.500;7.552;2022-12-18T04:09:42;6.73;;;3.10;;
4986;SDS011;12674;51.500;7.552;2022-12-18T04:11:47;5.87;;;3.27;;
4986;SDS011;12674;51.500;7.552;2022-12-18T04:13:50;3.47;;;2.90;;
4986;SDS011;12674;51.500;7.552;2022-12-18T04:15:57;5.93;;;3.30;;
4986;SDS011;12674;51.500;7.552;2022-12-18T04:18:01;3.80;;;3.30;;
4986;SDS011;12674;51.500;7.552;2022-12-18T04:20:13;3.57;;;2.87;;
4986;SDS011;12674;51.500;7.552;2022-12-18T04:22:17;3.23;;;2.50;;
4986;SDS011;12674;51.500;7.552;2022-12-18T04:24:25;2.33;;;2.13;;
4986;SDS011;12674;51.500;7.552;2022-12-18T04:26:40;3.00;;;2.70;;
4986;SDS011;12674;51.500;7.552;2022-12-18T04:28:51;7.23;;;2.50;;
4986;SDS011;12674;51.500;7.552;2022-12-18T04:30:54;2.77;;;2.20;;
4986;SDS011;12674;51.500;7.552;2022-12-18T04:32:57;3.40;;;2.50;;
4986;SDS011;12674;51.500;7.552;2022-12-18T04:35:01;2.40;;;2.20;;
4986;SDS011;12674;51.500;7.552;2022-12-18T04:37:07;4.00;;;2.57;;
4986;SDS011;12674;51.500;7.552;2022-12-18T04:39:10;4.50;;;3.07;;
4986;SDS011;12674;51.500;7.552;2022-12-18T04:41:15;5.10;;;3.00;;
4986;SDS011;12674;51.500;7.552;2022-12-18T04:43:21;3.10;;;2.50;;
4986;SDS011;12674;51.500;7.552;2022-12-18T04:45:24;2.30;;;2.10;;
4986;SDS011;12674;51.500;7.552;2022-12-18T04:47:26;3.33;;;2.50;;
4986;SDS011;12674;51.500;7.552;2022-12-18T04:49:29;3.57;;;2.60;;
4986;SDS011;12674;51.500;7.552;2022-12-18T04:51:32;2.33;;;1.80;;
4986;SDS011;12674;51.500;7.552;2022-12-18T04:53:37;1.90;;;1.80;;
4986;SDS011;12674;51.500;7.552;2022-12-18T04:55:41;2.00;;;1.80;;
4986;SDS011;12674;51.500;7.552;2022-12-18T04:57:44;2.57;;;2.37;;
4986;SDS011;12674;51.500;7.552;2022-12-18T04:59:48;3.33;;;2.23;;
4986;SDS011;12674;51.500;7.552;2022-12-18T05:01:51;2.70;;;2.23;;
4986;SDS011;12674;51.500;7.552;2022-12-18T05:03:54;3.97;;;3.00;;
4986;SDS011;12674;51.500;7.552;2022-12-18T05:05:57;2.00;;;1.90;;
4986;SDS011;12674;51.500;7.552;2022-12-18T05:08:00;2.10;;;2.00;;
4986;SDS011;12674;51.500;7.552;2022-12-18T05:10:05;1.73;;;1.63;;
4986;SDS011;12674;51.500;7.552;2022-12-18T05:12:08;2.10;;;1.90;;
4986;SDS011;12674;51.500;7.552;2022-12-18T05:14:11;5.13;;;2.50;;
4986;SDS011;12674;51.500;7.552;2022-12-18T05:16:35;2.73;;;2.33;;
4986;SDS011;12674;51.500;7.552;2022-12-18T05:18:41;2.97;;;2.20;;
4986;SDS011;12674;51.500;7.552;2022-12-18T05:20:54;2.57;;;2.00;;
4986;SDS011;12674;51.500;7.552;2022-12-18T05:23:03;2.00;;;1.90;;
4986;SDS011;12674;51.500;7.552;2022-12-18T05:25:09;2.13;;;1.93;;
4986;SDS011;12674;51.500;7.552;2022-12-18T05:27:14;1.73;;;1.63;;
4986;SDS011;12674;51.500;7.552;2022-12-18T05:29:23;2.20;;;1.97;;
4986;SDS011;12674;51.500;7.552;2022-12-18T05:31:29;2.27;;;2.10;;
4986;SDS011;12674;51.500;7.552;2022-12-18T05:33:40;2.80;;;2.33;;
4986;SDS011;12674;51.500;7.552;2022-12-18T05:35:49;1.93;;;1.70;;
4986;SDS011;12674;51.500;7.552;2022-12-18T05:37:54;2.57;;;2.00;;
4986;SDS011;12674;51.500;7.552;2022-12-18T05:40:00;1.53;;;1.43;;
4986;SDS011;12674;51.500;7.552;2022-12-18T05:42:08;2.10;;;1.93;;
4986;SDS011;12674;51.500;7.552;2022-12-18T05:44:16;2.53;;;2.23;;
4986;SDS011;12674;51.500;7.552;2022-12-18T05:46:20;3.30;;;2.23;;
4986;SDS011;12674;51.500;7.552;2022-12-18T05:48:28;2.43;;;2.07;;
4986;SDS011;12674;51.500;7.552;2022-12-18T05:50:37;2.20;;;2.00;;
4986;SDS011;12674;51.500;7.552;2022-12-18T05:53:03;1.70;;;1.60;;
4986;SDS011;12674;51.500;7.552;2022-12-18T05:55:22;6.60;;;2.07;;
4986;SDS011;12674;51.500;7.552;2022-12-18T05:57:27;4.10;;;2.33;;
4986;SDS011;12674;51.500;7.552;2022-12-18T05:59:30;2.57;;;2.20;;
4986;SDS011;12674;51.500;7.552;2022-12-18T06:01:33;3.10;;;2.80;;
4986;SDS011;12674;51.500;7.552;2022-12-18T06:03:36;6.47;;;1.70;;
4986;SDS011;12674;51.500;7.552;2022-12-18T06:05:41;2.40;;;1.87;;
4986;SDS011;12674;51.500;7.552;2022-12-18T06:07:45;2.10;;;1.73;;
4986;SDS011;12674;51.500;7.552;2022-12-18T06:09:48;2.87;;;2.13;;
4986;SDS011;12674;51.500;7.552;2022-12-18T06:11:52;1.70;;;1.60;;
4986;SDS011;12674;51.500;7.552;2022-12-18T06:14:00;2.20;;;2.00;;
4986;SDS011;12674;51.500;7.552;2022-12-18T06:16:07;1.63;;;1.53;;
4986;SDS011;12674;51.500;7.552;2022-12-18T06:18:18;6.50;;;1.80;;
4986;SDS011;12674;51.500;7.552;2022-12-18T06:20:25;2.90;;;2.10;;
4986;SDS011;12674;51.500;7.552;2022-12-18T06:22:35;1.87;;;1.77;;
4986;SDS011;12674;51.500;7.552;2022-12-18T06:24:43;1.97;;;1.87;;
4986;SDS011;12674;51.500;7.552;2022-12-18T06:26:48;2.20;;;1.73;;
4986;SDS011;12674;51.500;7.552;2022-12-18T06:28:52;3.17;;;2.47;;
4986;SDS011;12674;51.500;7.552;2022-12-18T06:31:00;1.87;;;1.73;;
4986;SDS011;12674;51.500;7.552;2022-12-18T06:33:07;2.00;;;1.90;;
4986;SDS011;12674;51.500;7.552;2022-12-18T06:35:15;2.23;;;1.80;;
4986;SDS011;12674;51.500;7.552;2022-12-18T06:37:27;2.93;;;2.00;;
4986;SDS011;12674;51.500;7.552;2022-12-18T06:39:36;2.03;;;1.93;;
4986;SDS011;12674;51.500;7.552;2022-12-18T06:41:39;3.10;;;2.27;;
4986;SDS011;12674;51.500;7.552;2022-12-18T06:43:48;2.47;;;2.27;;
4986;SDS011;12674;51.500;7.552;2022-12-18T06:46:01;3.00;;;2.20;;
4986;SDS011;12674;51.500;7.552;2022-12-18T06:48:05;2.47;;;2.17;;
4986;SDS011;12674;51.500;7.552;2022-12-18T06:50:14;1.80;;;1.70;;
4986;SDS011;12674;51.500;7.552;2022-12-18T06:52:24;3.13;;;1.80;;
4986;SDS011;12674;51.500;7.552;2022-12-18T06:54:35;2.60;;;2.20;;
4986;SDS011;12674;51.500;7.552;2022-12-18T06:56:44;3.30;;;2.30;;
4986;SDS011;12674;51.500;7.552;2022-12-18T06:58:47;3.80;;;2.00;;
4986;SDS011;12674;51.500;7.552;2022-12-18T07:00:59;2.80;;;2.40;;
4986;SDS011;12674;51.500;7.552;2022-12-18T07:03:17;4.53;;;2.30;;
4986;SDS011;12674;51.500;7.552;2022-12-18T07:05:23;2.27;;;2.00;;
4986;SDS011;12674;51.500;7.552;2022-12-18T07:07:26;2.70;;;2.27;;
4986;SDS011;12674;51.500;7.552;2022-12-18T07:09:34;2.23;;;2.03;;
4986;SDS011;12674;51.500;7.552;2022-12-18T07:11:43;2.97;;;2.37;;
4986;SDS011;12674;51.500;7.552;2022-12-18T07:13:47;4.27;;;2.13;;
4986;SDS011;12674;51.500;7.552;2022-12-18T07:15:51;3.30;;;2.40;;
4986;SDS011;12674;51.500;7.552;2022-12-18T07:17:59;2.10;;;1.90;;
4986;SDS011;12674;51.500;7.552;2022-12-18T07:20:15;4.70;;;2.33;;
4986;SDS011;12674;51.500;7.552;2022-12-18T07:22:20;2.70;;;2.50;;
4986;SDS011;12674;51.500;7.552;2022-12-18T07:24:23;2.60;;;2.20;;
4986;SDS011;12674;51.500;7.552;2022-12-18T07:26:30;2.50;;;2.30;;
4986;SDS011;12674;51.500;7.552;2022-12-18T07:28:35;2.97;;;2.30;;
4986;SDS011;12674;51.500;7.552;2022-12-18T07:30:39;2.20;;;2.00;;
4986;SDS011;12674;51.500;7.552;2022-12-18T07:32:52;2.33;;;2.13;;
4986;SDS011;12674;51.500;7.552;2022-12-18T07:35:00;3.93;;;2.43;;
4986;SDS011;12674;51.500;7.552;2022-12-18T07:37:07;3.33;;;2.60;;
4986;SDS011;12674;51.500;7.552;2022-12-18T07:39:13;2.90;;;2.40;;
4986;SDS011;12674;51.500;7.552;2022-12-18T07:41:16;4.63;;;2.70;;
4986;SDS011;12674;51.500;7.552;2022-12-18T07:43:24;2.93;;;2.50;;
4986;SDS011;12674;51.500;7.552;2022-12-18T07:45:33;3.53;;;2.53;;
4986;SDS011;12674;51.500;7.552;2022-12-18T07:47:37;2.37;;;2.17;;
4986;SDS011;12674;51.500;7.552;2022-12-18T07:49:44;4.63;;;2.60;;
4986;SDS011;12674;51.500;7.552;2022-12-18T07:52:01;4.47;;;2.70;;
4986;SDS011;12674;51.500;7.552;2022-12-18T07:54:07;4.40;;;2.50;;
4986;SDS011;12674;51.500;7.552;2022-12-18T07:56:13;4.17;;;3.10;;
4986;SDS011;12674;51.500;7.552;2022-12-18T07:58:28;4.77;;;2.90;;
4986;SDS011;12674;51.500;7.552;2022-12-18T08:00:31;8.03;;;3.50;;
4986;SDS011;12674;51.500;7.552;2022-12-18T08:02:39;10.23;;;4.10;;
4986;SDS011;12674;51.500;7.552;2022-12-18T08:04:48;9.00;;;4.10;;
4986;SDS011;12674;51.500;7.552;2022-12-18T08:06:53;7.13;;;3.13;;
4986;SDS011;12674;51.500;7.552;2022-12-18T08:08:57;5.40;;;3.40;;
4986;SDS011;12674;51.500;7.552;2022-12-18T08:11:05;2.83;;;2.50;;
4986;SDS011;12674;51.500;7.552;2022-12-18T08:13:10;8.53;;;3.07;;
4986;SDS011;12674;51.500;7.552;2022-12-18T08:15:16;7.23;;;3.97;;
4986;SDS011;12674;51.500;7.552;2022-12-18T08:17:25;3.17;;;2.33;;
4986;SDS011;12674;51.500;7.552;2022-12-18T08:19:29;2.23;;;1.80;;
4986;SDS011;12674;51.500;7.552;2022-12-18T08:21:35;2.33;;;2.13;;
4986;SDS011;12674;51.500;7.552;2022-12-18T08:23:43;2.97;;;2.20;;
4986;SDS011;12674;51.500;7.552;2022-12-18T08:25:54;2.90;;;2.60;;
4986;SDS011;12674;51.500;7.552;2022-12-18T08:27:57;2.50;;;2.20;;
4986;SDS011;12674;51.500;7.552;2022-12-18T08:30:03;2.30;;;2.10;;
4986;SDS011;12674;51.500;7.552;2022-12-18T08:32:09;3.80;;;2.67;;
4986;SDS011;12674;51.500;7.552;2022-12-18T08:34:12;3.83;;;3.10;;
4986;SDS011;12674;51.500;7.552;2022-12-18T08:36:21;4.90;;;2.97;;
4986;SDS011;12674;51.500;7.552;2022-12-18T08:38:26;4.67;;;3.43;;
4986;SDS011;12674;51.500;7.552;2022-12-18T08:40:39;4.80;;;3.23;;
4986;SDS011;12674;51.500;7.552;2022-12-18T08:43:02;2.67;;;2.30;;
4986;SDS011;12674;51.500;7.552;2022-12-18T08:45:27;5.40;;;2.93;;
4986;SDS011;12674;51.500;7.552;2022-12-18T08:47:33;4.00;;;3.30;;
4986;SDS011;12674;51.500;7.552;2022-12-18T08:49:49;7.53;;;4.30;;
4986;SDS011;12674;51.500;7.552;2022-12-18T08:52:02;5.03;;;3.47;;
4986;SDS011;12674;51.500;7.552;2022-12-18T08:54:10;7.10;;;3.87;;
4986;SDS011;12674;51.500;7.552;2022-12-18T08:56:15;5.57;;;4.07;;
4986;SDS011;12674;51.500;7.552;2022-12-18T08:58:24;7.00;;;4.50;;
4986;SDS011;12674;51.500;7.552;2022-12-18T09:00:38;4.33;;;3.43;;
4986;SDS011;12674;51.500;7.552;2022-12-18T09:02:42;4.10;;;3.10;;
4986;SDS011;12674;51.500;7.552;2022-12-18T09:04:48;5.33;;;4.57;;
4986;SDS011;12674;51.500;7.552;2022-12-18T09:09:27;5.97;;;3.40;;
4986;SDS011;12674;51.500;7.552;2022-12-18T09:11:33;5.70;;;2.63;;
4986;SDS011;12674;51.500;7.552;2022-12-18T09:13:48;5.13;;;2.70;;
4986;SDS011;12674;51.500;7.552;2022-12-18T09:15:56;3.27;;;2.20;;
4986;SDS011;12674;51.500;7.552;2022-12-18T09:18:04;4.30;;;2.50;;
4986;SDS011;12674;51.500;7.552;2022-12-18T09:20:11;3.13;;;2.27;;
4986;SDS011;12674;51.500;7.552;2022-12-18T09:22:18;2.70;;;2.10;;
4986;SDS011;12674;51.500;7.552;2022-12-18T09:24:22;2.70;;;2.10;;
4986;SDS011;12674;51.500;7.552;2022-12-18T09:26:29;2.27;;;2.07;;
4986;SDS011;12674;51.500;7.552;2022-12-18T09:28:49;3.77;;;2.40;;
4986;SDS011;12674;51.500;7.552;2022-12-18T09:30:57;3.20;;;2.40;;
4986;SDS011;12674;51.500;7.552;2022-12-18T09:33:08;2.60;;;2.27;;
4986;SDS011;12674;51.500;7.552;2022-12-18T09:35:27;2.50;;;2.30;;
4986;SDS011;12674;51.500;7.552;2022-12-18T09:37:39;2.50;;;2.30;;
4986;SDS011;12674;51.500;7.552;2022-12-18T09:39:50;31.77;;;14.90;;
4986;SDS011;12674;51.500;7.552;2022-12-18T09:41:54;6.63;;;4.10;;
4986;SDS011;12674;51.500;7.552;2022-12-18T09:44:09;2.50;;;2.30;;
4986;SDS011;12674;51.500;7.552;2022-12-18T09:46:19;4.57;;;2.57;;
4986;SDS011;12674;51.500;7.552;2022-12-18T09:48:28;5.53;;;2.60;;
4986;SDS011;12674;51.500;7.552;2022-12-18T09:50:38;4.13;;;2.70;;
4986;SDS011;12674;51.500;7.552;2022-12-18T09:52:45;2.83;;;2.53;;
4986;SDS011;12674;51.500;7.552;2022-12-18T09:55:05;2.57;;;2.37;;
4986;SDS011;12674;51.500;7.552;2022-12-18T09:57:18;6.37;;;3.40;;
4986;SDS011;12674;51.500;7.552;2022-12-18T09:59:30;7.90;;;3.60;;
4986;SDS011;12674;51.500;7.552;2022-12-18T10:01:51;9.10;;;4.47;;
4986;SDS011;12674;51.500;7.552;2022-12-18T10:04:00;4.23;;;3.20;;
4986;SDS011;12674;51.500;7.552;2022-12-18T10:06:05;5.90;;;3.30;;
4986;SDS011;12674;51.500;7.552;2022-12-18T10:08:22;4.60;;;2.93;;
4986;SDS011;12674;51.500;7.552;2022-12-18T10:10:32;3.00;;;2.70;;
4986;SDS011;12674;51.500;7.552;2022-12-18T10:12:51;4.70;;;2.60;;
4986;SDS011;12674;51.500;7.552;2022-12-18T10:15:07;4.07;;;2.50;;
4986;SDS011;12674;51.500;7.552;2022-12-18T10:17:14;4.47;;;3.07;;
4986;SDS011;12674;51.500;7.552;2022-12-18T10:19:29;3.40;;;3.00;;
4986;SDS011;12674;51.500;7.552;2022-12-18T10:21:39;3.77;;;2.47;;
4986;SDS011;12674;51.500;7.552;2022-12-18T10:23:48;1.93;;;1.60;;
4986;SDS011;12674;51.500;7.552;2022-12-18T10:25:59;2.23;;;1.80;;
4986;SDS011;12674;51.500;7.552;2022-12-18T10:28:08;2.27;;;2.00;;
4986;SDS011;12674;51.500;7.552;2022-12-18T10:30:15;2.60;;;2.20;;
4986;SDS011;12674;51.500;7.552;2022-12-18T10:32:21;2.77;;;2.20;;
4986;SDS011;12674;51.500;7.552;2022-12-18T10:34:26;2.50;;;2.10;;
4986;SDS011;12674;51.500;7.552;2022-12-18T10:36:29;5.50;;;2.00;;
4986;SDS011;12674;51.500;7.552;2022-12-18T10:38:32;2.40;;;2.20;;
4986;SDS011;12674;51.500;7.552;2022-12-18T10:40:48;1.73;;;1.60;;
4986;SDS011;12674;51.500;7.552;2022-12-18T10:43:02;1.67;;;1.57;;
4986;SDS011;12674;51.500;7.552;2022-12-18T10:45:08;3.87;;;1.90;;
4986;SDS011;12674;51.500;7.552;2022-12-18T10:47:15;2.37;;;1.80;;
4986;SDS011;12674;51.500;7.552;2022-12-18T10:49:21;3.33;;;2.30;;
4986;SDS011;12674;51.500;7.552;2022-12-18T10:51:26;2.23;;;2.03;;
4986;SDS011;12674;51.500;7.552;2022-12-18T10:53:32;2.33;;;1.63;;
4986;SDS011;12674;51.500;7.552;2022-12-18T10:55:38;2.70;;;2.20;;
4986;SDS011;12674;51.500;7.552;2022-12-18T10:57:42;2.40;;;2.20;;
4986;SDS011;12674;51.500;7.552;2022-12-18T10:59:50;5.20;;;2.13;;
4986;SDS011;12674;51.500;7.552;2022-12-18T11:01:55;4.87;;;2.07;;
4986;SDS011;12674;51.500;7.552;2022-12-18T11:04:01;3.90;;;1.90;;
4986;SDS011;12674;51.500;7.552;2022-12-18T11:06:08;1.93;;;1.83;;
4986;SDS011;12674;51.500;7.552;2022-12-18T11:08:19;2.70;;;2.03;;
4986;SDS011;12674;51.500;7.552;2022-12-18T11:10:28;2.07;;;1.90;;
4986;SDS011;12674;51.500;7.552;2022-12-18T11:12:32;3.23;;;1.70;;
4986;SDS011;12674;51.500;7.552;2022-12-18T11:14:41;2.40;;;1.97;;
4986;SDS011;12674;51.500;7.552;2022-12-18T11:16:48;1.90;;;1.70;;
4986;SDS011;12674;51.500;7.552;2022-12-18T11:19:21;2.20;;;2.00;;
4986;SDS011;12674;51.500;7.552;2022-12-18T11:21:30;3.60;;;1.57;;
4986;SDS011;12674;51.500;7.552;2022-12-18T11:23:44;2.50;;;2.10;;
4986;SDS011;12674;51.500;7.552;2022-12-18T11:25:53;1.97;;;1.50;;
4986;SDS011;12674;51.500;7.552;2022-12-18T11:27:58;2.17;;;1.60;;
4986;SDS011;12674;51.500;7.552;2022-12-18T11:30:10;2.60;;;1.90;;
4986;SDS011;12674;51.500;7.552;2022-12-18T11:32:31;1.90;;;1.80;;
4986;SDS011;12674;51.500;7.552;2022-12-18T11:34:38;7.43;;;2.73;;
4986;SDS011;12674;51.500;7.552;2022-12-18T11:36:43;3.73;;;1.90;;
4986;SDS011;12674;51.500;7.552;2022-12-18T11:38:47;2.70;;;2.30;;
4986;SDS011;12674;51.500;7.552;2022-12-18T11:40:52;2.80;;;1.67;;
4986;SDS011;12674;51.500;7.552;2022-12-18T11:43:06;2.57;;;2.37;;
4986;SDS011;12674;51.500;7.552;2022-12-18T11:45:22;2.10;;;1.90;;
4986;SDS011;12674;51.500;7.552;2022-12-18T11:47:29;2.23;;;2.03;;
4986;SDS011;12674;51.500;7.552;2022-12-18T11:49:42;3.40;;;2.10;;
4986;SDS011;12674;51.500;7.552;2022-12-18T11:51:58;1.97;;;1.87;;
4986;SDS011;12674;51.500;7.552;2022-12-18T11:54:08;2.13;;;1.87;;
4986;SDS011;12674;51.500;7.552;2022-12-18T11:56:21;2.80;;;2.20;;
4986;SDS011;12674;51.500;7.552;2022-12-18T11:58:36;7.80;;;2.77;;
4986;SDS011;12674;51.500;7.552;2022-12-18T12:00:50;10.80;;;2.67;;
4986;SDS011;12674;51.500;7.552;2022-12-18T12:03:14;3.47;;;2.50;;
4986;SDS011;12674;51.500;7.552;2022-12-18T12:05:33;5.20;;;1.90;;
4986;SDS011;12674;51.500;7.552;2022-12-18T12:07:43;4.10;;;2.90;;
4986;SDS011;12674;51.500;7.552;2022-12-18T12:09:57;5.70;;;2.60;;
4986;SDS011;12674;51.500;7.552;2022-12-18T12:12:13;2.83;;;2.00;;
4986;SDS011;12674;51.500;7.552;2022-12-18T12:14:31;2.37;;;2.10;;
4986;SDS011;12674;51.500;7.552;2022-12-18T12:16:42;3.00;;;2.00;;
4986;SDS011;12674;51.500;7.552;2022-12-18T12:19:04;8.03;;;2.27;;
4986;SDS011;12674;51.500;7.552;2022-12-18T12:21:18;2.30;;;2.10;;
4986;SDS011;12674;51.500;7.552;2022-12-18T12:23:26;5.23;;;2.17;;
4986;SDS011;12674;51.500;7.552;2022-12-18T12:25:37;4.00;;;2.90;;
4986;SDS011;12674;51.500;7.552;2022-12-18T12:27:48;5.27;;;2.23;;
4986;SDS011;12674;51.500;7.552;2022-12-18T12:30:00;10.70;;;2.57;;
4986;SDS011;12674;51.500;7.552;2022-12-18T12:32:19;7.40;;;2.70;;
4986;SDS011;12674;51.500;7.552;2022-12-18T12:34:32;6.03;;;2.50;;
4986;SDS011;12674;51.500;7.552;2022-12-18T12:36:40;6.50;;;3.67;;
4986;SDS011;12674;51.500;7.552;2022-12-18T12:38:53;8.13;;;4.33;;
4986;SDS011;12674;51.500;7.552;2022-12-18T12:40:58;7.43;;;4.57;;
4986;SDS011;12674;51.500;7.552;2022-12-18T12:43:33;3.60;;;2.80;;
4986;SDS011;12674;51.500;7.552;2022-12-18T12:45:46;6.83;;;3.80;;
4986;SDS011;12674;51.500;7.552;2022-12-18T12:48:04;3.23;;;2.77;;
4986;SDS011;12674;51.500;7.552;2022-12-18T12:50:13;3.60;;;2.90;;
4986;SDS011;12674;51.500;7.552;2022-12-18T12:52:20;2.53;;;2.23;;
4986;SDS011;12674;51.500;7.552;2022-12-18T12:54:31;3.30;;;2.67;;
4986;SDS011;12674;51.500;7.552;2022-12-18T12:56:54;6.67;;;3.20;;
4986;SDS011;12674;51.500;7.552;2022-12-18T12:59:08;4.80;;;2.70;;
4986;SDS011;12674;51.500;7.552;2022-12-18T13:01:19;6.03;;;3.47;;
4986;SDS011;12674;51.500;7.552;2022-12-18T13:03:34;3.20;;;2.83;;
4986;SDS011;12674;51.500;7.552;2022-12-18T13:05:52;5.10;;;3.43;;